Time,TemperatureF,DewpointF,PressureIn,WindDirection,WindDirectionDegrees,WindSpeedMPH,WindSpeedGustMPH,Humidity,HourlyPrecipIn,Conditions,Clouds,dailyrainin,SolarRadiationWatts/m^2,SoftwareType,DateUTC
2013-03-02 00:00:00,55.0,51.2,30.21,SSW,202,2.2,3.1,87,0.00,,,0.00,0.00,VWS V14.01,2013-03-02 08:00:00,
2013-03-02 00:02:00,54.9,51.7,30.21,SSW,202,0.0,1.6,89,0.00,,,0.00,0.00,VWS V14.01,2013-03-02 08:02:00,
2013-03-02 00:07:00,54.7,51.5,30.21,SSW,202,0.0,1.6,89,0.00,,,0.00,0.00,VWS V14.01,2013-03-02 08:07:00,
2013-03-02 00:12:00,54.3,51.5,30.21,SSW,202,0.0,1.6,90,0.00,,,0.00,0.00,VWS V14.01,2013-03-02 08:12:00,
2013-03-02 00:15:00,55.0,51.2,30.21,SSW,202,0.0,2.5,87,0.00,,,0.00,0.00,VWS V14.01,2013-03-02 08:15:00,
2013-03-02 00:17:00,54.3,51.5,30.21,SSW,202,0.0,0.0,90,0.00,,,0.00,0.00,VWS V14.01,2013-03-02 08:17:00,
2013-03-02 00:23:00,54.1,51.0,30.21,SSW,202,0.0,0.0,89,0.00,,,0.00,0.00,VWS V14.01,2013-03-02 08:23:00,
2013-03-02 00:28:00,53.8,50.9,30.21,SSW,202,0.0,0.0,90,0.00,,,0.00,0.00,VWS V14.01,2013-03-02 08:28:00,
2013-03-02 00:30:00,55.0,51.6,30.18,SW,225,0.0,2.5,88,0.00,,,0.00,0.00,VWS V14.01,2013-03-02 08:30:00,
2013-03-02 00:33:00,54.1,51.6,30.21,SSW,202,0.0,2.2,91,0.00,,,0.00,0.00,VWS V14.01,2013-03-02 08:33:00,
2013-03-02 00:38:00,54.1,51.6,30.21,SSW,202,1.3,2.2,91,0.00,,,0.00,0.00,VWS V14.01,2013-03-02 08:38:00,
2013-03-02 00:43:00,54.3,51.8,30.21,SSW,202,2.5,2.5,91,0.00,,,0.00,0.00,VWS V14.01,2013-03-02 08:43:00,
2013-03-02 00:45:00,54.5,51.3,30.21,SSW,202,0.0,2.2,89,0.00,,,0.00,0.00,VWS V14.01,2013-03-02 08:45:00,
2013-03-02 00:48:00,54.7,51.8,30.21,SSW,202,2.5,2.5,90,0.00,,,0.00,0.00,VWS V14.01,2013-03-02 08:48:00,
2013-03-02 00:53:00,55.0,51.9,30.21,SSW,202,2.5,3.1,89,0.00,,,0.00,0.00,VWS V14.01,2013-03-02 08:53:00,
2013-03-02 00:58:00,55.0,51.6,30.21,SSW,202,1.6,3.1,88,0.00,,,0.00,0.00,VWS V14.01,2013-03-02 08:58:00,
2013-03-02 01:00:00,54.0,51.7,30.18,SSW,202,0.0,2.5,92,0.00,,,0.00,0.00,VWS V14.01,2013-03-02 09:00:00,
2013-03-02 01:03:00,55.0,51.2,30.21,SSW,202,0.0,2.5,87,0.00,,,0.00,0.00,VWS V14.01,2013-03-02 09:03:00,
2013-03-02 01:08:00,55.0,51.2,30.21,SSW,202,0.0,2.5,87,0.00,,,0.00,0.00,VWS V14.01,2013-03-02 09:08:00,
2013-03-02 01:13:00,55.2,51.4,30.21,SSW,202,0.0,2.5,87,0.00,,,0.00,0.00,VWS V14.01,2013-03-02 09:13:00,
2013-03-02 01:15:00,54.5,52.8,30.18,SSW,202,0.0,3.1,94,0.00,,,0.00,0.00,VWS V14.01,2013-03-02 09:15:00,
2013-03-02 01:18:00,55.0,51.2,30.21,SSW,202,2.2,2.2,87,0.00,,,0.00,0.00,VWS V14.01,2013-03-02 09:18:00,
2013-03-02 01:23:00,55.2,51.4,30.21,SSW,202,1.1,2.5,87,0.00,,,0.00,0.00,VWS V14.01,2013-03-02 09:23:00,
2013-03-02 01:28:00,55.0,51.2,30.18,SSW,202,0.0,2.5,87,0.00,,,0.00,0.00,VWS V14.01,2013-03-02 09:28:00,
2013-03-02 01:30:00,54.0,52.0,30.18,SSW,202,0.0,0.0,93,0.00,,,0.00,0.00,VWS V14.01,2013-03-02 09:30:00,
2013-03-02 01:33:00,54.7,51.5,30.18,SW,225,0.0,0.0,89,0.00,,,0.00,0.00,VWS V14.01,2013-03-02 09:33:00,
2013-03-02 01:38:00,54.5,51.3,30.18,SSW,202,0.0,0.0,89,0.00,,,0.00,0.00,VWS V14.01,2013-03-02 09:38:00,
2013-03-02 01:43:00,54.5,51.3,30.21,SSW,202,1.3,1.6,89,0.00,,,0.00,0.00,VWS V14.01,2013-03-02 09:43:00,
2013-03-02 01:45:00,54.0,52.3,30.15,SSW,202,0.0,3.1,94,0.00,,,0.00,0.00,VWS V14.01,2013-03-02 09:45:00,
2013-03-02 01:48:00,54.5,51.6,30.21,SSW,202,1.3,2.5,90,0.00,,,0.00,0.00,VWS V14.01,2013-03-02 09:48:00,
2013-03-02 01:53:00,54.1,51.3,30.21,SSW,202,0.0,2.5,90,0.00,,,0.00,0.00,VWS V14.01,2013-03-02 09:53:00,
2013-03-02 01:58:00,54.0,51.4,30.18,SSW,202,0.0,2.5,91,0.00,,,0.00,0.00,VWS V14.01,2013-03-02 09:58:00,
2013-03-02 02:00:00,54.1,52.7,30.15,SSW,202,2.7,2.7,95,0.00,,,0.00,0.00,VWS V14.01,2013-03-02 10:00:00,
2013-03-02 02:03:00,53.8,51.8,30.18,SSW,202,0.0,0.0,93,0.00,,,0.00,0.00,VWS V14.01,2013-03-02 10:03:00,
2013-03-02 02:08:00,54.0,52.0,30.18,SSW,202,0.0,2.0,93,0.00,,,0.00,0.00,VWS V14.01,2013-03-02 10:08:00,
2013-03-02 02:14:00,54.5,52.8,30.18,SSW,202,0.0,3.1,94,0.00,,,0.00,0.00,VWS V14.01,2013-03-02 10:14:00,
2013-03-02 02:15:00,54.9,52.9,30.15,SSW,202,2.7,3.8,93,0.00,,,0.00,0.00,VWS V14.01,2013-03-02 10:15:00,
2013-03-02 02:19:00,54.5,52.5,30.18,SW,225,0.0,0.0,93,0.00,,,0.00,0.00,VWS V14.01,2013-03-02 10:19:00,
2013-03-02 02:24:00,54.3,52.6,30.18,SSW,202,0.0,0.0,94,0.00,,,0.00,0.00,VWS V14.01,2013-03-02 10:24:00,
2013-03-02 02:29:00,54.0,52.0,30.18,SSW,202,0.0,0.0,93,0.00,,,0.00,0.00,VWS V14.01,2013-03-02 10:29:00,
2013-03-02 02:30:00,54.7,52.7,30.15,SSW,202,1.1,2.9,93,0.00,,,0.00,0.00,VWS V14.01,2013-03-02 10:30:00,
2013-03-02 02:34:00,53.8,52.1,30.18,SSW,202,2.9,3.1,94,0.00,,,0.00,0.00,VWS V14.01,2013-03-02 10:34:00,
2013-03-02 02:40:00,54.0,52.3,30.18,SSW,202,0.0,3.1,94,0.00,,,0.00,0.00,VWS V14.01,2013-03-02 10:40:00,
2013-03-02 02:45:00,54.0,52.3,30.15,SSW,202,0.0,0.0,94,0.00,,,0.00,0.00,VWS V14.01,2013-03-02 10:45:00,
2013-03-02 02:50:00,54.0,52.3,30.15,SSW,202,0.0,2.2,94,0.00,,,0.00,0.00,VWS V14.01,2013-03-02 10:50:00,
2013-03-02 02:55:00,54.0,52.3,30.15,SSW,202,0.0,2.2,94,0.00,,,0.00,0.00,VWS V14.01,2013-03-02 10:55:00,
2013-03-02 03:00:00,54.1,52.7,30.15,SSW,202,2.2,2.7,95,0.00,,,0.00,0.00,VWS V14.01,2013-03-02 11:00:00,
2013-03-02 03:05:00,54.3,52.6,30.15,SSW,202,0.9,3.1,94,0.00,,,0.00,0.00,VWS V14.01,2013-03-02 11:05:00,
2013-03-02 03:10:00,54.5,52.8,30.15,SW,225,3.6,3.6,94,0.00,,,0.00,0.00,VWS V14.01,2013-03-02 11:10:00,
2013-03-02 03:15:00,54.9,52.9,30.15,SSW,202,0.0,2.7,93,0.00,,,0.00,0.00,VWS V14.01,2013-03-02 11:15:00,
2013-03-02 03:20:00,54.9,52.9,30.15,South,180,2.5,2.7,93,0.00,,,0.00,0.00,VWS V14.01,2013-03-02 11:20:00,
2013-03-02 03:25:00,54.7,52.7,30.15,SW,225,1.6,2.9,93,0.00,,,0.00,0.00,VWS V14.01,2013-03-02 11:25:00,
2013-03-02 03:30:00,54.7,52.7,30.15,SSW,202,0.0,1.1,93,0.00,,,0.00,0.00,VWS V14.01,2013-03-02 11:30:00,
2013-03-02 03:35:00,54.3,52.3,30.15,SSW,202,2.7,2.7,93,0.00,,,0.00,0.00,VWS V14.01,2013-03-02 11:35:00,
2013-03-02 03:40:00,54.1,52.2,30.15,South,180,0.0,2.7,93,0.00,,,0.00,0.00,VWS V14.01,2013-03-02 11:40:00,
2013-03-02 03:45:00,54.1,52.2,30.15,SSW,202,0.0,0.0,93,0.00,,,0.00,0.00,VWS V14.01,2013-03-02 11:45:00,
2013-03-02 03:50:00,54.1,52.2,30.15,SSW,202,1.3,2.2,93,0.00,,,0.00,0.00,VWS V14.01,2013-03-02 11:50:00,
2013-03-02 03:55:00,54.1,52.2,30.15,SSW,202,0.0,2.5,93,0.00,,,0.00,0.00,VWS V14.01,2013-03-02 11:55:00,
2013-03-02 04:00:00,54.0,52.0,30.15,SSW,202,3.6,3.6,93,0.00,,,0.00,0.00,VWS V14.01,2013-03-02 12:00:00,
2013-03-02 04:05:00,54.3,52.3,30.15,SSW,202,1.6,3.6,93,0.00,,,0.00,0.00,VWS V14.01,2013-03-02 12:05:00,
2013-03-02 04:10:00,53.8,51.8,30.15,SSW,202,2.0,3.6,93,0.00,,,0.00,0.00,VWS V14.01,2013-03-02 12:10:00,
2013-03-02 04:15:00,53.8,51.8,30.15,SSW,202,0.0,0.0,93,0.00,,,0.00,0.00,VWS V14.01,2013-03-02 12:15:00,
2013-03-02 04:20:00,53.4,51.7,30.15,SSW,202,0.0,0.0,94,0.00,,,0.00,0.00,VWS V14.01,2013-03-02 12:20:00,
2013-03-02 04:25:00,53.4,51.7,30.15,SSW,202,0.0,2.5,94,0.00,,,0.00,0.00,VWS V14.01,2013-03-02 12:25:00,
2013-03-02 04:30:00,53.4,52.0,30.15,SSW,202,0.0,0.0,95,0.00,,,0.00,0.00,VWS V14.01,2013-03-02 12:30:00,
2013-03-02 04:35:00,53.4,52.0,30.15,SSW,202,2.5,2.5,95,0.00,,,0.00,0.00,VWS V14.01,2013-03-02 12:35:00,
2013-03-02 04:41:00,53.6,51.9,30.15,SW,225,0.0,3.1,94,0.00,,,0.00,0.00,VWS V14.01,2013-03-02 12:41:00,
2013-03-02 04:45:00,53.1,52.0,30.12,South,180,0.0,0.0,96,0.00,,,0.00,0.00,VWS V14.01,2013-03-02 12:45:00,
2013-03-02 04:46:00,53.6,51.9,30.12,SSW,202,0.0,0.0,94,0.00,,,0.00,0.00,VWS V14.01,2013-03-02 12:46:00,
2013-03-02 04:51:00,53.4,52.0,30.12,SSW,202,2.2,2.2,95,0.00,,,0.00,0.00,VWS V14.01,2013-03-02 12:51:00,
2013-03-02 04:56:00,53.4,52.0,30.12,SSW,202,0.0,2.2,95,0.00,,,0.00,0.00,VWS V14.01,2013-03-02 12:56:00,
2013-03-02 05:00:00,53.1,52.0,30.15,SSE,158,0.0,0.0,96,0.00,,,0.00,0.00,VWS V14.01,2013-03-02 13:00:00,
2013-03-02 05:01:00,53.6,52.2,30.15,SSW,202,1.3,2.0,95,0.00,,,0.00,0.00,VWS V14.01,2013-03-02 13:01:00,
2013-03-02 05:06:00,53.8,52.4,30.15,SSW,202,2.2,3.1,95,0.00,,,0.00,0.00,VWS V14.01,2013-03-02 13:06:00,
2013-03-02 05:11:00,53.8,52.1,30.15,SSW,202,1.1,3.1,94,0.00,,,0.00,0.00,VWS V14.01,2013-03-02 13:11:00,
2013-03-02 05:15:00,52.9,51.8,30.12,SSE,158,0.0,0.0,96,0.00,,,0.00,0.00,VWS V14.01,2013-03-02 13:15:00,
2013-03-02 05:16:00,53.6,52.2,30.15,SSW,202,0.0,0.0,95,0.00,,,0.00,0.00,VWS V14.01,2013-03-02 13:16:00,
2013-03-02 05:21:00,53.4,52.0,30.15,SSW,202,0.0,0.0,95,0.00,,,0.00,0.00,VWS V14.01,2013-03-02 13:21:00,
2013-03-02 05:26:00,53.4,52.3,30.15,SSW,202,0.0,0.0,96,0.00,,,0.00,0.00,VWS V14.01,2013-03-02 13:26:00,
2013-03-02 05:30:00,52.9,52.1,30.12,SSW,202,0.0,0.0,97,0.00,,,0.00,0.00,VWS V14.01,2013-03-02 13:30:00,
2013-03-02 05:31:00,53.2,52.1,30.15,SSW,202,0.0,0.0,96,0.00,,,0.00,0.00,VWS V14.01,2013-03-02 13:31:00,
2013-03-02 05:36:00,53.2,52.1,30.15,South,180,0.0,0.0,96,0.00,,,0.00,0.00,VWS V14.01,2013-03-02 13:36:00,
2013-03-02 05:41:00,53.1,52.0,30.15,South,180,0.0,0.0,96,0.00,,,0.00,0.00,VWS V14.01,2013-03-02 13:41:00,
2013-03-02 05:45:00,54.1,52.5,30.15,SSW,202,2.7,3.8,94,0.00,,,0.00,0.00,VWS V14.01,2013-03-02 13:45:00,
2013-03-02 05:46:00,53.1,52.2,30.12,South,180,0.0,0.0,97,0.00,,,0.00,0.00,VWS V14.01,2013-03-02 13:46:00,
2013-03-02 05:51:00,53.2,52.4,30.12,SSW,202,0.0,0.0,97,0.00,,,0.00,0.00,VWS V14.01,2013-03-02 13:51:00,
2013-03-02 05:56:00,53.2,52.4,30.12,SSE,158,0.0,0.0,97,0.00,,,0.00,0.00,VWS V14.01,2013-03-02 13:56:00,
2013-03-02 06:00:00,54.0,52.3,30.15,SW,225,1.6,3.1,94,0.00,,,0.00,0.00,VWS V14.01,2013-03-02 14:00:00,
2013-03-02 06:01:00,53.1,52.0,30.15,SSE,158,0.0,0.0,96,0.00,,,0.00,0.00,VWS V14.01,2013-03-02 14:01:00,
2013-03-02 06:06:00,53.1,52.0,30.15,SSE,158,0.0,0.0,96,0.00,,,0.00,0.00,VWS V14.01,2013-03-02 14:06:00,
2013-03-02 06:11:00,52.9,51.8,30.15,SSE,158,0.0,0.0,96,0.00,,,0.00,0.00,VWS V14.01,2013-03-02 14:11:00,
2013-03-02 06:15:00,54.5,52.8,30.15,SSW,202,0.0,2.9,94,0.00,,,0.00,0.00,VWS V14.01,2013-03-02 14:15:00,
2013-03-02 06:16:00,52.9,51.8,30.12,SSE,158,0.0,0.0,96,0.00,,,0.00,0.00,VWS V14.01,2013-03-02 14:16:00,
2013-03-02 06:21:00,52.9,52.0,30.12,SSW,202,0.0,0.0,97,0.00,,,0.00,0.00,VWS V14.01,2013-03-02 14:21:00,
2013-03-02 06:26:00,52.9,52.0,30.12,SSW,202,0.0,0.0,97,0.00,,,0.00,0.00,VWS V14.01,2013-03-02 14:26:00,
2013-03-02 06:30:00,55.4,53.7,30.15,SSW,202,0.0,2.9,94,0.00,,,0.00,0.00,VWS V14.01,2013-03-02 14:30:00,
2013-03-02 06:31:00,53.1,52.2,30.12,SW,225,0.0,0.0,97,0.00,,,0.00,0.00,VWS V14.01,2013-03-02 14:31:00,
2013-03-02 06:36:00,53.1,52.0,30.12,SSW,202,0.0,0.0,96,0.00,,,0.00,0.00,VWS V14.01,2013-03-02 14:36:00,
2013-03-02 06:41:00,53.4,52.3,30.12,SW,225,1.6,3.4,96,0.00,,,0.00,0.00,VWS V14.01,2013-03-02 14:41:00,
2013-03-02 06:45:00,56.8,54.2,30.15,SSE,158,0.0,3.1,91,0.00,,,0.00,0.00,VWS V14.01,2013-03-02 14:45:00,
2013-03-02 06:46:00,54.1,52.5,30.15,SSW,202,2.5,2.9,94,0.00,,,0.00,0.00,VWS V14.01,2013-03-02 14:46:00,
2013-03-02 06:51:00,54.1,52.5,30.15,SSW,202,0.9,3.1,94,0.00,,,0.00,0.00,VWS V14.01,2013-03-02 14:51:00,
2013-03-02 06:56:00,54.1,52.5,30.15,SW,225,2.5,3.1,94,0.00,,,0.00,0.00,VWS V14.01,2013-03-02 14:56:00,
2013-03-02 07:00:00,57.6,55.0,30.15,South,180,0.0,0.0,91,0.00,,,0.00,0.00,VWS V14.01,2013-03-02 15:00:00,
2013-03-02 07:01:00,54.5,52.5,30.15,SSW,202,0.0,2.9,93,0.00,,,0.00,0.00,VWS V14.01,2013-03-02 15:01:00,
2013-03-02 07:06:00,54.3,52.6,30.15,SSW,202,0.0,2.9,94,0.00,,,0.00,0.00,VWS V14.01,2013-03-02 15:06:00,
2013-03-02 07:11:00,54.3,52.6,30.15,WSW,248,0.0,2.9,94,0.00,,,0.00,0.00,VWS V14.01,2013-03-02 15:11:00,
2013-03-02 07:15:00,58.1,52.0,30.15,SE,135,0.0,3.1,80,0.00,,,0.00,0.00,VWS V14.01,2013-03-02 15:15:00,
2013-03-02 07:16:00,54.5,52.8,30.15,SSW,202,1.1,1.1,94,0.00,,,0.00,0.00,VWS V14.01,2013-03-02 15:16:00,
2013-03-02 07:21:00,55.0,53.3,30.15,SSW,202,0.0,2.9,94,0.00,,,0.00,0.00,VWS V14.01,2013-03-02 15:21:00,
2013-03-02 07:26:00,55.2,53.5,30.15,SSW,202,0.0,2.9,94,0.00,,,0.00,0.00,VWS V14.01,2013-03-02 15:26:00,
2013-03-02 07:30:00,58.8,52.0,30.15,SSE,158,0.0,1.6,78,0.00,,,0.00,0.00,VWS V14.01,2013-03-02 15:30:00,
2013-03-02 07:31:00,55.4,53.7,30.15,SW,225,1.3,1.3,94,0.00,,,0.00,0.00,VWS V14.01,2013-03-02 15:31:00,
2013-03-02 07:37:00,56.5,53.9,30.15,South,180,0.0,3.1,91,0.00,,,0.00,0.00,VWS V14.01,2013-03-02 15:37:00,
2013-03-02 07:42:00,56.7,54.4,30.15,SSE,158,0.0,3.1,92,0.00,,,0.00,0.00,VWS V14.01,2013-03-02 15:42:00,
2013-03-02 07:45:00,59.4,52.5,30.15,SE,135,0.0,1.6,78,0.00,,,0.00,0.00,VWS V14.01,2013-03-02 15:45:00,
2013-03-02 07:47:00,56.8,53.6,30.15,SSE,158,0.0,0.0,89,0.00,,,0.00,0.00,VWS V14.01,2013-03-02 15:47:00,
2013-03-02 07:53:00,57.2,54.3,30.15,South,180,0.0,0.0,90,0.00,,,0.00,0.00,VWS V14.01,2013-03-02 15:53:00,
2013-03-02 07:58:00,57.4,54.8,30.15,South,180,0.0,0.0,91,0.00,,,0.00,0.00,VWS V14.01,2013-03-02 15:58:00,
2013-03-02 08:00:00,60.1,52.5,30.15,SE,135,0.0,1.3,76,0.00,,,0.00,0.00,VWS V14.01,2013-03-02 16:00:00,
2013-03-02 08:03:00,57.6,54.3,30.15,South,180,0.0,0.0,89,0.00,,,0.00,0.00,VWS V14.01,2013-03-02 16:03:00,
2013-03-02 08:08:00,57.7,54.2,30.15,South,180,0.0,0.0,88,0.00,,,0.00,0.00,VWS V14.01,2013-03-02 16:08:00,
2013-03-02 08:13:00,57.9,52.8,30.15,SSW,202,2.0,3.1,83,0.00,,,0.00,0.00,VWS V14.01,2013-03-02 16:13:00,
2013-03-02 08:15:00,59.9,52.3,30.15,East,90,0.0,2.9,76,0.00,,,0.00,0.00,VWS V14.01,2013-03-02 16:15:00,
2013-03-02 08:18:00,58.3,52.5,30.15,South,180,0.0,1.6,81,0.00,,,0.00,0.00,VWS V14.01,2013-03-02 16:18:00,
2013-03-02 08:23:00,58.6,53.8,30.15,East,90,0.0,1.6,84,0.00,,,0.00,0.00,VWS V14.01,2013-03-02 16:23:00,
2013-03-02 08:28:00,58.8,53.7,30.15,South,180,1.1,1.6,83,0.00,,,0.00,0.00,VWS V14.01,2013-03-02 16:28:00,
2013-03-02 08:30:00,61.0,53.0,30.15,NE,45,0.0,0.0,75,0.00,,,0.00,0.00,VWS V14.01,2013-03-02 16:30:00,
2013-03-02 08:33:00,59.2,53.7,30.15,East,90,0.0,1.6,82,0.00,,,0.00,0.00,VWS V14.01,2013-03-02 16:33:00,
2013-03-02 08:38:00,59.2,53.7,30.15,ESE,112,0.0,1.6,82,0.00,,,0.00,0.00,VWS V14.01,2013-03-02 16:38:00,
2013-03-02 08:43:00,59.5,54.0,30.15,SE,135,0.0,1.6,82,0.00,,,0.00,0.00,VWS V14.01,2013-03-02 16:43:00,
2013-03-02 08:45:00,62.6,53.8,30.15,ENE,68,1.3,5.8,73,0.00,,,0.00,0.00,VWS V14.01,2013-03-02 16:45:00,
2013-03-02 08:48:00,59.4,52.9,30.15,ENE,68,0.0,0.0,79,0.00,,,0.00,0.00,VWS V14.01,2013-03-02 16:48:00,
2013-03-02 08:53:00,59.9,53.7,30.15,WNW,292,1.1,1.1,80,0.00,,,0.00,0.00,VWS V14.01,2013-03-02 16:53:00,
2013-03-02 08:58:00,60.1,53.6,30.15,SE,135,0.0,1.3,79,0.00,,,0.00,0.00,VWS V14.01,2013-03-02 16:58:00,
2013-03-02 09:00:00,62.4,52.5,30.15,NNW,338,4.9,6.3,70,0.00,,,0.00,0.00,VWS V14.01,2013-03-02 17:00:00,
2013-03-02 09:03:00,60.3,53.4,30.15,ENE,68,0.0,0.0,78,0.00,,,0.00,0.00,VWS V14.01,2013-03-02 17:03:00,
2013-03-02 09:08:00,60.3,53.0,30.15,NE,45,2.7,2.9,77,0.00,,,0.00,0.00,VWS V14.01,2013-03-02 17:08:00,
2013-03-02 09:13:00,60.1,52.5,30.15,East,90,2.2,2.9,76,0.00,,,0.00,0.00,VWS V14.01,2013-03-02 17:13:00,
2013-03-02 09:15:00,63.0,51.8,30.15,NE,45,0.0,6.3,67,0.00,,,0.00,0.00,VWS V14.01,2013-03-02 17:15:00,
2013-03-02 09:18:00,60.1,52.5,30.15,East,90,0.0,0.0,76,0.00,,,0.00,0.00,VWS V14.01,2013-03-02 17:18:00,
2013-03-02 09:23:00,60.1,52.1,30.15,East,90,0.0,0.0,75,0.00,,,0.00,0.00,VWS V14.01,2013-03-02 17:23:00,
2013-03-02 09:28:00,60.6,52.7,30.15,SE,135,0.0,0.0,75,0.00,,,0.00,0.00,VWS V14.01,2013-03-02 17:28:00,
2013-03-02 09:30:00,64.0,52.5,30.15,ESE,112,3.1,4.7,66,0.00,,,0.00,0.00,VWS V14.01,2013-03-02 17:30:00,
2013-03-02 09:33:00,61.3,53.0,30.15,SE,135,0.0,0.0,74,0.00,,,0.00,0.00,VWS V14.01,2013-03-02 17:33:00,
2013-03-02 09:38:00,61.7,53.3,30.15,NE,45,0.0,5.8,74,0.00,,,0.00,0.00,VWS V14.01,2013-03-02 17:38:00,
2013-03-02 09:43:00,62.4,54.0,30.15,East,90,1.3,5.8,74,0.00,,,0.00,0.00,VWS V14.01,2013-03-02 17:43:00,
2013-03-02 09:45:00,64.2,52.2,30.15,NNW,338,1.6,4.3,65,0.00,,,0.00,0.00,VWS V14.01,2013-03-02 17:45:00,
2013-03-02 09:48:00,62.6,52.7,30.15,ENE,68,0.0,3.1,70,0.00,,,0.00,0.00,VWS V14.01,2013-03-02 17:48:00,
2013-03-02 09:53:00,62.2,52.0,30.15,NNE,22,6.3,6.3,69,0.00,,,0.00,0.00,VWS V14.01,2013-03-02 17:53:00,
2013-03-02 09:58:00,62.4,52.5,30.15,NE,45,4.0,6.3,70,0.00,,,0.00,0.00,VWS V14.01,2013-03-02 17:58:00,
2013-03-02 10:00:00,65.1,52.7,30.15,NNE,22,2.9,4.7,64,0.00,,,0.00,0.00,VWS V14.01,2013-03-02 18:00:00,
2013-03-02 10:03:00,62.4,52.5,30.15,North,0,2.7,4.9,70,0.00,,,0.00,0.00,VWS V14.01,2013-03-02 18:03:00,
2013-03-02 10:08:00,62.6,52.3,30.15,East,90,2.0,4.9,69,0.00,,,0.00,0.00,VWS V14.01,2013-03-02 18:08:00,
2013-03-02 10:13:00,62.8,51.7,30.15,East,90,0.0,6.3,67,0.00,,,0.00,0.00,VWS V14.01,2013-03-02 18:13:00,
2013-03-02 10:15:00,64.8,52.7,30.15,East,90,0.0,6.3,65,0.00,,,0.00,0.00,VWS V14.01,2013-03-02 18:15:00,
2013-03-02 10:18:00,63.3,53.0,30.15,East,90,0.0,4.7,69,0.00,,,0.00,0.00,VWS V14.01,2013-03-02 18:18:00,
2013-03-02 10:23:00,63.5,52.4,30.15,NE,45,0.0,4.7,67,0.00,,,0.00,0.00,VWS V14.01,2013-03-02 18:23:00,
2013-03-02 10:28:00,64.0,52.5,30.15,NE,45,2.2,4.7,66,0.00,,,0.00,0.00,VWS V14.01,2013-03-02 18:28:00,
2013-03-02 10:30:00,64.4,52.0,30.12,NNE,22,3.6,4.3,64,0.00,,,0.00,0.00,VWS V14.01,2013-03-02 18:30:00,
2013-03-02 10:33:00,64.4,52.4,30.15,East,90,3.8,4.3,65,0.00,,,0.00,0.00,VWS V14.01,2013-03-02 18:33:00,
2013-03-02 10:38:00,64.4,51.5,30.15,ENE,68,1.6,4.3,63,0.00,,,0.00,0.00,VWS V14.01,2013-03-02 18:38:00,
2013-03-02 10:43:00,64.2,51.8,30.15,NNW,338,0.0,4.3,64,0.00,,,0.00,0.00,VWS V14.01,2013-03-02 18:43:00,
2013-03-02 10:45:00,64.8,52.3,30.12,East,90,0.0,3.6,64,0.00,,,0.00,0.00,VWS V14.01,2013-03-02 18:45:00,
2013-03-02 10:48:00,64.4,52.0,30.15,SE,135,0.0,1.6,64,0.00,,,0.00,0.00,VWS V14.01,2013-03-02 18:48:00,
2013-03-02 10:53:00,64.6,52.6,30.15,ESE,112,0.0,2.0,65,0.00,,,0.00,0.00,VWS V14.01,2013-03-02 18:53:00,
2013-03-02 10:58:00,65.1,52.7,30.15,NE,45,3.4,3.8,64,0.00,,,0.00,0.00,VWS V14.01,2013-03-02 18:58:00,
2013-03-02 11:00:00,65.5,51.7,30.12,SE,135,0.0,4.0,61,0.00,,,0.00,0.00,VWS V14.01,2013-03-02 19:00:00,
2013-03-02 11:03:00,65.1,52.7,30.15,NW,315,0.0,6.3,64,0.00,,,0.00,0.00,VWS V14.01,2013-03-02 19:03:00,
2013-03-02 11:09:00,64.8,52.7,30.15,NNE,22,3.8,6.3,65,0.00,,,0.00,0.00,VWS V14.01,2013-03-02 19:09:00,
2013-03-02 11:14:00,64.8,52.7,30.15,ENE,68,0.0,6.3,65,0.00,,,0.00,0.00,VWS V14.01,2013-03-02 19:14:00,
2013-03-02 11:15:00,66.6,53.2,30.12,North,0,0.0,4.7,62,0.00,,,0.00,0.00,VWS V14.01,2013-03-02 19:15:00,
2013-03-02 11:19:00,64.4,52.4,30.15,East,90,0.0,2.9,65,0.00,,,0.00,0.00,VWS V14.01,2013-03-02 19:19:00,
2013-03-02 11:24:00,64.2,52.2,30.15,NE,45,3.1,3.1,65,0.00,,,0.00,0.00,VWS V14.01,2013-03-02 19:24:00,
2013-03-02 11:29:00,64.4,52.0,30.12,East,90,2.7,4.3,64,0.00,,,0.00,0.00,VWS V14.01,2013-03-02 19:29:00,
2013-03-02 11:30:00,66.2,52.4,30.12,ENE,68,0.0,3.8,61,0.00,,,0.00,0.00,VWS V14.01,2013-03-02 19:30:00,
2013-03-02 11:34:00,64.9,52.9,30.12,NE,45,3.4,3.6,65,0.00,,,0.00,0.00,VWS V14.01,2013-03-02 19:34:00,
2013-03-02 11:39:00,64.4,51.5,30.12,East,90,0.0,3.6,63,0.00,,,0.00,0.00,VWS V14.01,2013-03-02 19:39:00,
2013-03-02 11:44:00,64.8,52.3,30.12,East,90,0.0,3.6,64,0.00,,,0.00,0.00,VWS V14.01,2013-03-02 19:44:00,
2013-03-02 11:45:00,66.7,52.9,30.09,ESE,112,0.0,3.4,61,0.00,,,0.00,0.00,VWS V14.01,2013-03-02 19:45:00,
2013-03-02 11:49:00,65.5,53.4,30.12,North,0,0.0,4.0,65,0.00,,,0.00,0.00,VWS V14.01,2013-03-02 19:49:00,
2013-03-02 11:54:00,65.5,52.6,30.12,NE,45,3.1,4.0,63,0.00,,,0.00,0.00,VWS V14.01,2013-03-02 19:54:00,
2013-03-02 11:59:00,65.5,51.7,30.12,East,90,0.0,4.0,61,0.00,,,0.00,0.00,VWS V14.01,2013-03-02 19:59:00,
2013-03-02 12:00:00,67.3,52.5,30.09,ENE,68,0.0,2.5,59,0.00,,,0.00,0.00,VWS V14.01,2013-03-02 20:00:00,
2013-03-02 12:04:00,65.7,51.9,30.12,SE,135,0.0,0.0,61,0.00,,,0.00,0.00,VWS V14.01,2013-03-02 20:04:00,
2013-03-02 12:09:00,66.4,52.5,30.12,East,90,0.0,2.2,61,0.00,,,0.00,0.00,VWS V14.01,2013-03-02 20:09:00,
2013-03-02 12:14:00,66.6,53.2,30.12,NNW,338,0.0,4.7,62,0.00,,,0.00,0.00,VWS V14.01,2013-03-02 20:14:00,
2013-03-02 12:15:00,68.2,52.9,30.09,East,90,2.7,4.3,58,0.00,,,0.00,0.00,VWS V14.01,2013-03-02 20:15:00,
2013-03-02 12:19:00,66.6,52.7,30.12,East,90,2.0,3.8,61,0.00,,,0.00,0.00,VWS V14.01,2013-03-02 20:19:00,
2013-03-02 12:24:00,66.6,53.2,30.12,NNE,22,0.0,3.8,62,0.00,,,0.00,0.00,VWS V14.01,2013-03-02 20:24:00,
2013-03-02 12:29:00,66.4,52.5,30.12,East,90,0.0,3.8,61,0.00,,,0.00,0.00,VWS V14.01,2013-03-02 20:29:00,
2013-03-02 12:30:00,68.4,51.6,30.09,East,90,1.6,3.6,55,0.00,,,0.00,0.00,VWS V14.01,2013-03-02 20:30:00,
2013-03-02 12:34:00,66.4,52.5,30.12,East,90,0.0,0.0,61,0.00,,,0.00,0.00,VWS V14.01,2013-03-02 20:34:00,
2013-03-02 12:39:00,66.4,52.5,30.12,ENE,68,0.0,3.4,61,0.00,,,0.00,0.00,VWS V14.01,2013-03-02 20:39:00,
2013-03-02 12:44:00,66.7,52.4,30.09,ESE,112,0.0,3.4,60,0.00,,,0.00,0.00,VWS V14.01,2013-03-02 20:44:00,
2013-03-02 12:45:00,68.2,51.9,30.09,ENE,68,0.0,4.9,56,0.00,,,0.00,0.00,VWS V14.01,2013-03-02 20:45:00,
2013-03-02 12:49:00,67.1,53.2,30.09,NE,45,0.0,0.0,61,0.00,,,0.00,0.00,VWS V14.01,2013-03-02 20:49:00,
2013-03-02 12:54:00,67.6,53.3,30.09,East,90,0.0,0.0,60,0.00,,,0.00,0.00,VWS V14.01,2013-03-02 20:54:00,
2013-03-02 12:59:00,67.3,52.5,30.09,ENE,68,0.0,2.5,59,0.00,,,0.00,0.00,VWS V14.01,2013-03-02 20:59:00,
2013-03-02 13:00:00,66.6,53.2,30.09,South,180,8.5,8.5,62,0.00,,,0.00,0.00,VWS V14.01,2013-03-02 21:00:00,
2013-03-02 13:04:00,67.8,52.5,30.09,SSW,202,0.0,0.0,58,0.00,,,0.00,0.00,VWS V14.01,2013-03-02 21:04:00,
2013-03-02 13:09:00,67.8,52.5,30.09,ENE,68,2.0,4.3,58,0.00,,,0.00,0.00,VWS V14.01,2013-03-02 21:09:00,
2013-03-02 13:14:00,68.2,52.9,30.09,ENE,68,1.6,4.3,58,0.00,,,0.00,0.00,VWS V14.01,2013-03-02 21:14:00,
2013-03-02 13:15:00,62.8,53.2,30.09,SSW,202,8.5,11.0,71,0.00,,,0.00,0.00,VWS V14.01,2013-03-02 21:15:00,
2013-03-02 13:19:00,68.4,53.0,30.09,North,0,2.9,3.4,58,0.00,,,0.00,0.00,VWS V14.01,2013-03-02 21:19:00,
2013-03-02 13:24:00,68.9,53.5,30.09,NE,45,0.0,3.4,58,0.00,,,0.00,0.00,VWS V14.01,2013-03-02 21:24:00,
2013-03-02 13:29:00,68.4,51.6,30.09,East,90,2.5,3.6,55,0.00,,,0.00,0.00,VWS V14.01,2013-03-02 21:29:00,
2013-03-02 13:30:00,62.2,53.5,30.06,SW,225,6.0,10.7,73,0.00,,,0.00,0.00,VWS V14.01,2013-03-02 21:30:00,
2013-03-02 13:34:00,68.4,52.1,30.09,NE,45,3.4,4.9,56,0.00,,,0.00,0.00,VWS V14.01,2013-03-02 21:34:00,
2013-03-02 13:39:00,68.0,51.7,30.09,ENE,68,0.0,4.9,56,0.00,,,0.00,0.00,VWS V14.01,2013-03-02 21:39:00,
2013-03-02 13:44:00,68.2,51.9,30.09,ENE,68,0.0,4.9,56,0.00,,,0.00,0.00,VWS V14.01,2013-03-02 21:44:00,
2013-03-02 13:45:00,63.0,53.8,30.06,SSE,158,4.9,12.8,72,0.00,,,0.00,0.00,VWS V14.01,2013-03-02 21:45:00,
2013-03-02 13:49:00,68.2,51.4,30.09,NE,45,0.0,3.8,55,0.00,,,0.00,0.00,VWS V14.01,2013-03-02 21:49:00,
2013-03-02 13:54:00,67.8,51.6,30.09,East,90,0.0,3.8,56,0.00,,,0.00,0.00,VWS V14.01,2013-03-02 21:54:00,
2013-03-02 14:00:00,66.6,53.2,30.09,South,180,8.5,8.5,62,0.00,,,0.00,0.00,VWS V14.01,2013-03-02 22:00:00,
2013-03-02 14:05:00,63.1,53.2,30.09,SW,225,10.1,11.0,70,0.00,,,0.00,0.00,VWS V14.01,2013-03-02 22:05:00,
2013-03-02 14:10:00,62.6,53.1,30.09,South,180,5.6,11.0,71,0.00,,,0.00,0.00,VWS V14.01,2013-03-02 22:10:00,
2013-03-02 14:15:00,62.8,53.2,30.09,SSW,202,8.5,11.0,71,0.00,,,0.00,0.00,VWS V14.01,2013-03-02 22:15:00,
2013-03-02 14:20:00,62.6,53.5,30.09,SSW,202,8.5,10.1,72,0.00,,,0.00,0.00,VWS V14.01,2013-03-02 22:20:00,
2013-03-02 14:25:00,62.2,53.5,30.09,South,180,8.7,10.3,73,0.00,,,0.00,0.00,VWS V14.01,2013-03-02 22:25:00,
2013-03-02 14:30:00,62.2,53.5,30.06,SW,225,6.0,10.7,73,0.00,,,0.00,0.00,VWS V14.01,2013-03-02 22:30:00,
2013-03-02 14:35:00,62.1,53.7,30.06,SSW,202,7.4,12.8,74,0.00,,,0.00,0.00,VWS V14.01,2013-03-02 22:35:00,
2013-03-02 14:40:00,62.4,53.7,30.06,SSE,158,3.4,12.8,73,0.00,,,0.00,0.00,VWS V14.01,2013-03-02 22:40:00,
2013-03-02 14:45:00,63.0,53.8,30.06,SSE,158,5.4,5.4,72,0.00,,,0.00,0.00,VWS V14.01,2013-03-02 22:45:00,
2013-03-02 14:50:00,63.5,54.3,30.06,SSE,158,3.4,6.3,72,0.00,,,0.00,0.00,VWS V14.01,2013-03-02 22:50:00,
2013-03-02 14:55:00,64.0,54.5,30.06,SSE,158,5.4,6.3,71,0.00,,,0.00,0.00,VWS V14.01,2013-03-02 22:55:00,
2013-03-02 15:00:00,63.3,53.8,30.06,South,180,6.3,7.8,71,0.00,,,0.00,0.00,VWS V14.01,2013-03-02 23:00:00,
2013-03-02 15:05:00,62.6,53.5,30.06,SSW,202,7.2,10.1,72,0.00,,,0.00,0.00,VWS V14.01,2013-03-02 23:05:00,
2013-03-02 15:10:00,62.2,53.1,30.06,South,180,2.5,10.1,72,0.00,,,0.00,0.00,VWS V14.01,2013-03-02 23:10:00,
2013-03-02 15:15:00,61.9,52.4,30.06,South,180,6.0,7.2,71,0.00,,,0.00,0.00,VWS V14.01,2013-03-02 23:15:00,
2013-03-02 15:20:00,61.5,52.0,30.06,SSW,202,3.1,13.0,71,0.00,,,0.00,0.00,VWS V14.01,2013-03-02 23:20:00,
2013-03-02 15:25:00,61.2,51.7,30.06,South,180,5.4,13.0,71,0.00,,,0.00,0.00,VWS V14.01,2013-03-02 23:25:00,
2013-03-02 15:30:00,61.0,51.5,30.06,SE,135,10.1,10.1,71,0.00,,,0.00,0.00,VWS V14.01,2013-03-02 23:30:00,
2013-03-02 15:35:00,60.8,51.0,30.06,South,180,3.6,13.4,70,0.00,,,0.00,0.00,VWS V14.01,2013-03-02 23:35:00,
2013-03-02 15:40:00,60.8,51.0,30.06,SSW,202,3.8,13.4,70,0.00,,,0.00,0.00,VWS V14.01,2013-03-02 23:40:00,
2013-03-02 15:45:00,60.6,51.2,30.06,SSW,202,12.1,12.1,71,0.00,,,0.00,0.00,VWS V14.01,2013-03-02 23:45:00,
2013-03-02 15:50:00,60.1,51.0,30.06,South,180,5.6,12.5,72,0.00,,,0.00,0.00,VWS V14.01,2013-03-02 23:50:00,
2013-03-02 15:55:00,60.1,51.4,30.06,South,180,8.5,15.2,73,0.00,,,0.00,0.00,VWS V14.01,2013-03-02 23:55:00,
2013-03-02 16:00:00,60.3,51.2,30.06,SSW,202,6.3,6.3,72,0.00,,,0.00,0.00,VWS V14.01,2013-03-03 00:00:00,
2013-03-02 16:05:00,60.4,51.4,30.06,South,180,5.4,9.8,72,0.00,,,0.00,0.00,VWS V14.01,2013-03-03 00:05:00,
2013-03-02 16:10:00,60.4,51.8,30.06,SSW,202,6.5,10.7,73,0.00,,,0.00,0.00,VWS V14.01,2013-03-03 00:10:00,
2013-03-02 16:15:00,61.0,51.1,30.03,South,180,4.9,4.9,70,0.00,,,0.00,0.00,VWS V14.01,2013-03-03 00:15:00,
2013-03-02 16:20:00,61.0,51.1,30.03,SSE,158,8.7,12.3,70,0.00,,,0.00,0.00,VWS V14.01,2013-03-03 00:20:00,
2013-03-02 16:25:00,59.7,51.8,30.03,SW,225,10.5,13.0,75,0.00,,,0.00,0.00,VWS V14.01,2013-03-03 00:25:00,
2013-03-02 16:30:00,56.7,52.5,30.03,SSW,202,13.4,13.9,86,0.00,,,0.00,0.00,VWS V14.01,2013-03-03 00:30:00,
2013-03-02 16:35:00,58.1,52.3,30.03,SSW,202,5.6,14.8,81,0.00,,,0.00,0.00,VWS V14.01,2013-03-03 00:35:00,
2013-03-02 16:40:00,58.8,52.3,30.03,SSE,158,4.3,14.8,79,0.00,,,0.00,0.00,VWS V14.01,2013-03-03 00:40:00,
2013-03-02 16:45:00,58.8,52.0,30.03,South,180,12.1,12.1,78,0.00,,,0.00,0.00,VWS V14.01,2013-03-03 00:45:00,
2013-03-02 16:50:00,56.8,52.7,30.03,South,180,12.8,15.2,86,0.00,,,0.00,0.00,VWS V14.01,2013-03-03 00:50:00,
2013-03-02 16:55:00,56.3,52.8,30.03,SSW,202,5.8,17.2,88,0.00,,,0.00,0.00,VWS V14.01,2013-03-03 00:55:00,
2013-03-02 17:00:00,57.6,52.1,30.03,SW,225,13.2,13.2,82,0.00,,,0.00,0.00,VWS V14.01,2013-03-03 01:00:00,
2013-03-02 17:05:00,57.2,52.1,30.03,SSW,202,13.0,15.4,83,0.00,,,0.00,0.00,VWS V14.01,2013-03-03 01:05:00,
2013-03-02 17:10:00,56.7,52.2,30.03,SSW,202,9.0,15.4,85,0.00,,,0.00,0.00,VWS V14.01,2013-03-03 01:10:00,
2013-03-02 17:15:00,59.0,50.4,30.03,SSW,202,3.4,7.4,73,0.00,,,0.00,0.00,VWS V14.01,2013-03-03 01:15:00,
2013-03-02 17:16:00,56.1,52.0,30.03,South,180,11.0,12.3,86,0.00,,,0.00,0.00,VWS V14.01,2013-03-03 01:16:00,
2013-03-02 17:21:00,56.8,51.7,30.03,SSE,158,8.1,14.8,83,0.00,,,0.00,0.00,VWS V14.01,2013-03-03 01:21:00,
2013-03-02 17:26:00,57.4,51.6,30.03,SSW,202,10.1,14.8,81,0.00,,,0.00,0.00,VWS V14.01,2013-03-03 01:26:00,
2013-03-02 17:30:00,58.8,50.9,30.03,NW,315,0.0,5.8,75,0.00,,,0.00,0.00,VWS V14.01,2013-03-03 01:30:00,
2013-03-02 17:31:00,56.7,51.6,30.03,SSE,158,10.7,10.7,83,0.00,,,0.00,0.00,VWS V14.01,2013-03-03 01:31:00,
2013-03-02 17:36:00,56.3,51.9,30.03,SSW,202,7.4,12.1,85,0.00,,,0.00,0.00,VWS V14.01,2013-03-03 01:36:00,
2013-03-02 17:41:00,57.2,51.4,30.03,SSW,202,6.0,12.1,81,0.00,,,0.00,0.00,VWS V14.01,2013-03-03 01:41:00,
2013-03-02 17:45:00,58.3,50.8,30.03,West,270,1.6,3.6,76,0.00,,,0.00,0.00,VWS V14.01,2013-03-03 01:45:00,
2013-03-02 17:46:00,57.6,51.1,30.03,SSW,202,10.1,10.1,79,0.00,,,0.00,0.00,VWS V14.01,2013-03-03 01:46:00,
2013-03-02 17:51:00,57.2,51.1,30.03,SSW,202,8.5,10.1,80,0.00,,,0.00,0.00,VWS V14.01,2013-03-03 01:51:00,
2013-03-02 17:56:00,57.6,51.1,30.03,SE,135,5.8,10.1,79,0.00,,,0.00,0.00,VWS V14.01,2013-03-03 01:56:00,
2013-03-02 18:00:00,53.6,51.3,30.03,SSW,202,10.5,14.8,92,0.00,,,0.00,0.00,VWS V14.01,2013-03-03 02:00:00,
2013-03-02 18:01:00,58.1,50.6,30.03,SSW,202,3.8,4.7,76,0.00,,,0.00,0.00,VWS V14.01,2013-03-03 02:01:00,
2013-03-02 18:06:00,58.8,50.6,30.03,SSW,202,6.0,7.4,74,0.00,,,0.00,0.00,VWS V14.01,2013-03-03 02:06:00,
2013-03-02 18:11:00,59.0,50.4,30.03,SW,225,2.9,7.4,73,0.00,,,0.00,0.00,VWS V14.01,2013-03-03 02:11:00,
2013-03-02 18:15:00,53.2,52.1,30.03,South,180,2.7,17.0,96,0.00,,,0.00,0.00,VWS V14.01,2013-03-03 02:15:00,
2013-03-02 18:16:00,59.0,50.4,30.03,SW,225,4.0,4.7,73,0.00,,,0.00,0.00,VWS V14.01,2013-03-03 02:16:00,
2013-03-02 18:21:00,59.0,50.7,30.03,NW,315,0.0,4.7,74,0.00,,,0.00,0.00,VWS V14.01,2013-03-03 02:21:00,
2013-03-02 18:26:00,59.2,50.5,30.03,WSW,248,1.3,5.8,73,0.00,,,0.00,0.00,VWS V14.01,2013-03-03 02:26:00,
2013-03-02 18:30:00,54.1,51.6,30.03,South,180,7.6,17.7,91,0.00,,,0.00,0.00,VWS V14.01,2013-03-03 02:30:00,
2013-03-02 18:31:00,58.8,50.9,30.03,WNW,292,3.1,3.1,75,0.00,,,0.00,0.00,VWS V14.01,2013-03-03 02:31:00,
2013-03-02 18:36:00,59.0,50.7,30.03,West,270,0.0,3.6,74,0.00,,,0.00,0.00,VWS V14.01,2013-03-03 02:36:00,
2013-03-02 18:41:00,58.8,50.9,30.03,West,270,0.0,3.6,75,0.00,,,0.00,0.00,VWS V14.01,2013-03-03 02:41:00,
2013-03-02 18:45:00,52.5,51.7,30.03,SSW,202,10.7,15.2,97,0.00,,,0.00,0.00,VWS V14.01,2013-03-03 02:45:00,
2013-03-02 18:46:00,58.3,50.8,30.03,West,270,0.0,2.0,76,0.00,,,0.00,0.00,VWS V14.01,2013-03-03 02:46:00,
2013-03-02 18:51:00,57.9,51.1,30.03,WSW,248,0.0,2.0,78,0.00,,,0.00,0.00,VWS V14.01,2013-03-03 02:51:00,
2013-03-02 18:56:00,55.4,51.3,30.03,SE,135,8.7,13.2,86,0.00,,,0.00,0.00,VWS V14.01,2013-03-03 02:56:00,
2013-03-02 19:00:00,53.1,51.7,30.03,SSW,202,8.5,12.1,95,0.00,,,0.00,0.00,VWS V14.01,2013-03-03 03:00:00,
2013-03-02 19:01:00,53.4,51.5,30.03,South,180,12.3,12.3,93,0.00,,,0.00,0.00,VWS V14.01,2013-03-03 03:01:00,
2013-03-02 19:06:00,52.5,51.4,30.03,SSW,202,8.7,17.0,96,0.00,,,0.00,0.00,VWS V14.01,2013-03-03 03:06:00,
2013-03-02 19:11:00,52.9,51.8,30.03,West,270,1.3,17.0,96,0.00,,,0.00,0.00,VWS V14.01,2013-03-03 03:11:00,
2013-03-02 19:15:00,51.8,51.5,30.03,SSW,202,8.1,12.8,99,0.00,,,0.00,0.00,VWS V14.01,2013-03-03 03:15:00,
2013-03-02 19:16:00,53.4,52.0,30.03,SSW,202,2.9,3.4,95,0.00,,,0.00,0.00,VWS V14.01,2013-03-03 03:16:00,
2013-03-02 19:21:00,54.5,52.5,30.03,South,180,0.0,3.6,93,0.00,,,0.00,0.00,VWS V14.01,2013-03-03 03:21:00,
2013-03-02 19:27:00,55.8,52.3,30.03,SSW,202,3.8,4.9,88,0.00,,,0.00,0.00,VWS V14.01,2013-03-03 03:27:00,
2013-03-02 19:30:00,51.6,51.6,30.03,SSW,202,6.3,17.5,100,0.00,,,0.00,0.00,VWS V14.01,2013-03-03 03:30:00,
2013-03-02 19:32:00,53.1,51.4,30.03,SSW,202,8.5,15.2,94,0.00,,,0.00,0.00,VWS V14.01,2013-03-03 03:32:00,
2013-03-02 19:37:00,52.7,51.6,30.03,South,180,11.0,15.2,96,0.00,,,0.00,0.00,VWS V14.01,2013-03-03 03:37:00,
2013-03-02 19:42:00,53.1,52.0,30.03,SSW,202,2.9,15.2,96,0.00,,,0.00,0.00,VWS V14.01,2013-03-03 03:42:00,
2013-03-02 19:45:00,51.3,51.3,30.03,SSW,202,9.0,14.3,100,0.00,,,0.00,0.00,VWS V14.01,2013-03-03 03:45:00,
2013-03-02 19:47:00,52.5,51.7,30.03,SSW,202,2.5,12.1,97,0.00,,,0.00,0.00,VWS V14.01,2013-03-03 03:47:00,
2013-03-02 19:52:00,54.7,53.0,30.03,SSE,158,0.0,12.1,94,0.00,,,0.00,0.00,VWS V14.01,2013-03-03 03:52:00,
2013-03-02 19:57:00,54.0,52.0,30.03,SSW,202,6.5,12.1,93,0.00,,,0.00,0.00,VWS V14.01,2013-03-03 03:57:00,
2013-03-02 20:00:00,51.3,51.3,30.03,East,90,6.3,15.4,100,0.00,,,0.00,0.00,VWS V14.01,2013-03-03 04:00:00,
2013-03-02 20:02:00,52.7,51.6,30.03,SSW,202,9.4,12.3,96,0.00,,,0.00,0.00,VWS V14.01,2013-03-03 04:02:00,
2013-03-02 20:07:00,52.2,51.6,30.03,SSW,202,5.8,12.3,98,0.00,,,0.00,0.00,VWS V14.01,2013-03-03 04:07:00,
2013-03-02 20:12:00,52.3,51.8,30.03,SSW,202,12.3,12.8,98,0.00,,,0.00,0.00,VWS V14.01,2013-03-03 04:12:00,
2013-03-02 20:15:00,50.9,50.9,30.03,SSW,202,8.1,10.7,100,0.00,,,0.00,0.00,VWS V14.01,2013-03-03 04:15:00,
2013-03-02 20:17:00,51.8,51.5,30.03,SSW,202,10.3,10.5,99,0.00,,,0.00,0.00,VWS V14.01,2013-03-03 04:17:00,
2013-03-02 20:22:00,51.8,51.8,30.03,South,180,8.1,13.2,100,0.00,,,0.00,0.00,VWS V14.01,2013-03-03 04:22:00,
2013-03-02 20:27:00,51.8,51.5,30.03,SSW,202,17.5,17.5,99,0.00,,,0.00,0.00,VWS V14.01,2013-03-03 04:27:00,
2013-03-02 20:30:00,51.3,51.3,30.03,SW,225,4.0,15.7,100,0.00,,,0.00,0.00,VWS V14.01,2013-03-03 04:30:00,
2013-03-02 20:32:00,51.6,51.6,30.03,SSW,202,10.5,12.8,100,0.00,,,0.00,0.00,VWS V14.01,2013-03-03 04:32:00,
2013-03-02 20:37:00,51.4,51.4,30.03,SSW,202,5.8,12.8,100,0.00,,,0.00,0.00,VWS V14.01,2013-03-03 04:37:00,
2013-03-02 20:42:00,51.3,51.3,30.03,SSW,202,5.4,14.3,100,0.00,,,0.00,0.00,VWS V14.01,2013-03-03 04:42:00,
2013-03-02 20:45:00,52.0,51.2,30.03,SSW,202,4.0,9.0,97,0.00,,,0.00,0.00,VWS V14.01,2013-03-03 04:45:00,
2013-03-02 20:47:00,51.3,51.3,30.03,SSW,202,8.1,11.0,100,0.00,,,0.00,0.00,VWS V14.01,2013-03-03 04:47:00,
2013-03-02 20:52:00,51.4,51.4,30.03,SSW,202,6.3,11.0,100,0.00,,,0.00,0.00,VWS V14.01,2013-03-03 04:52:00,
2013-03-02 20:57:00,51.3,51.3,30.03,SE,135,12.5,12.5,100,0.00,,,0.00,0.00,VWS V14.01,2013-03-03 04:57:00,
2013-03-02 21:00:00,51.3,51.3,30.03,East,90,6.3,15.4,100,0.00,,,0.00,0.00,VWS V14.01,2013-03-03 05:00:00,
2013-03-02 21:03:00,51.3,51.3,30.03,SSW,202,0.9,7.6,100,0.00,,,0.00,0.00,VWS V14.01,2013-03-03 05:03:00,
2013-03-02 21:08:00,51.1,51.1,30.03,WSW,248,7.8,9.2,100,0.00,,,0.00,0.00,VWS V14.01,2013-03-03 05:08:00,
2013-03-02 21:11:00,51.1,51.1,30.03,South,180,10.7,10.7,100,0.00,,,0.00,0.00,VWS V14.01,2013-03-03 05:11:00,
2013-03-02 21:15:00,53.6,51.3,30.03,East,90,4.0,10.1,92,0.00,,,0.00,0.00,VWS V14.01,2013-03-03 05:15:00,
2013-03-02 21:16:00,50.9,50.9,30.03,SSW,202,7.4,8.5,100,0.00,,,0.00,0.00,VWS V14.01,2013-03-03 05:16:00,
2013-03-02 21:21:00,51.1,51.1,30.03,SE,135,5.6,15.7,100,0.00,,,0.00,0.00,VWS V14.01,2013-03-03 05:21:00,
2013-03-02 21:26:00,51.1,51.1,30.03,South,180,3.6,15.7,100,0.00,,,0.00,0.00,VWS V14.01,2013-03-03 05:26:00,
2013-03-02 21:30:00,52.7,51.0,30.03,SE,135,3.4,10.7,94,0.00,,,0.00,0.00,VWS V14.01,2013-03-03 05:30:00,
2013-03-02 21:31:00,51.3,51.3,30.03,SSW,202,4.9,8.1,100,0.00,,,0.00,0.00,VWS V14.01,2013-03-03 05:31:00,
2013-03-02 21:36:00,51.6,51.6,30.03,ESE,112,5.6,8.1,100,0.00,,,0.00,0.00,VWS V14.01,2013-03-03 05:36:00,
2013-03-02 21:41:00,52.2,51.6,30.03,SSW,202,3.4,8.1,98,0.00,,,0.00,0.00,VWS V14.01,2013-03-03 05:41:00,
2013-03-02 21:45:00,53.1,51.1,30.03,SW,225,4.9,12.8,93,0.00,,,0.00,0.00,VWS V14.01,2013-03-03 05:45:00,
2013-03-02 21:46:00,52.0,51.2,30.03,WSW,248,5.6,10.5,97,0.00,,,0.00,0.00,VWS V14.01,2013-03-03 05:46:00,
2013-03-02 21:51:00,52.2,51.1,30.03,SSW,202,4.9,10.5,96,0.00,,,0.00,0.00,VWS V14.01,2013-03-03 05:51:00,
2013-03-02 21:56:00,52.5,51.4,30.03,ENE,68,2.7,10.5,96,0.00,,,0.00,0.00,VWS V14.01,2013-03-03 05:56:00,
2013-03-02 22:00:00,53.2,51.0,30.03,South,180,5.6,11.9,92,0.00,,,0.00,0.00,VWS V14.01,2013-03-03 06:00:00,
2013-03-02 22:01:00,52.7,51.3,30.03,SSE,158,6.0,7.8,95,0.00,,,0.00,0.00,VWS V14.01,2013-03-03 06:01:00,
2013-03-02 22:06:00,53.4,51.7,30.03,NNE,22,6.5,7.8,94,0.00,,,0.00,0.00,VWS V14.01,2013-03-03 06:06:00,
2013-03-02 22:11:00,53.6,51.3,30.03,SSE,158,1.1,10.1,92,0.00,,,0.00,0.00,VWS V14.01,2013-03-03 06:11:00,
2013-03-02 22:15:00,53.2,51.0,30.03,South,180,9.8,10.5,92,0.00,,,0.00,0.00,VWS V14.01,2013-03-03 06:15:00,
2013-03-02 22:16:00,53.6,51.3,30.03,WNW,292,2.5,4.5,92,0.00,,,0.00,0.00,VWS V14.01,2013-03-03 06:16:00,
2013-03-02 22:22:00,53.1,50.8,30.03,South,180,3.6,6.5,92,0.00,,,0.00,0.00,VWS V14.01,2013-03-03 06:22:00,
2013-03-02 22:27:00,52.9,50.9,30.03,SW,225,4.9,10.7,93,0.00,,,0.00,0.00,VWS V14.01,2013-03-03 06:27:00,
2013-03-02 22:30:00,53.6,50.7,30.03,SSW,202,6.3,15.2,90,0.00,,,0.00,0.00,VWS V14.01,2013-03-03 06:30:00,
2013-03-02 22:32:00,52.9,51.2,30.03,ENE,68,6.0,6.0,94,0.00,,,0.00,0.00,VWS V14.01,2013-03-03 06:32:00,
2013-03-02 22:37:00,53.1,51.1,30.03,SW,225,5.4,7.8,93,0.00,,,0.00,0.00,VWS V14.01,2013-03-03 06:37:00,
2013-03-02 22:42:00,53.1,51.1,30.03,SSW,202,7.4,10.3,93,0.00,,,0.00,0.00,VWS V14.01,2013-03-03 06:42:00,
2013-03-02 22:45:00,52.7,51.0,30.03,SSW,202,8.7,13.2,94,0.00,,,0.00,0.00,VWS V14.01,2013-03-03 06:45:00,
2013-03-02 22:47:00,53.1,51.1,30.03,SW,225,2.9,8.7,93,0.00,,,0.00,0.00,VWS V14.01,2013-03-03 06:47:00,
2013-03-02 22:52:00,53.1,51.1,30.03,SE,135,6.3,8.7,93,0.00,,,0.00,0.00,VWS V14.01,2013-03-03 06:52:00,
2013-03-02 22:57:00,53.2,51.3,30.03,SSE,158,2.0,8.7,93,0.00,,,0.00,0.00,VWS V14.01,2013-03-03 06:57:00,
2013-03-02 23:00:00,51.1,51.1,30.00,SSW,202,10.1,14.1,100,0.00,,,0.00,0.00,VWS V14.01,2013-03-03 07:00:00,
2013-03-02 23:02:00,53.2,51.0,30.03,South,180,2.5,7.2,92,0.00,,,0.00,0.00,VWS V14.01,2013-03-03 07:02:00,
2013-03-02 23:07:00,53.6,51.0,30.03,SSW,202,8.1,10.1,91,0.00,,,0.00,0.00,VWS V14.01,2013-03-03 07:07:00,
2013-03-02 23:12:00,53.4,50.9,30.03,SSE,158,7.2,10.1,91,0.00,,,0.00,0.00,VWS V14.01,2013-03-03 07:12:00,
2013-03-02 23:15:00,50.9,50.9,30.00,WSW,248,13.6,14.5,100,0.00,,,0.00,0.00,VWS V14.01,2013-03-03 07:15:00,
2013-03-02 23:17:00,53.2,51.0,30.03,SSE,158,3.8,13.0,92,0.00,,,0.00,0.00,VWS V14.01,2013-03-03 07:17:00,
2013-03-02 23:22:00,53.6,51.0,30.03,SSE,158,6.5,13.0,91,0.00,,,0.00,0.00,VWS V14.01,2013-03-03 07:22:00,
2013-03-02 23:27:00,53.8,50.9,30.03,SSE,158,10.3,15.2,90,0.00,,,0.00,0.00,VWS V14.01,2013-03-03 07:27:00,
2013-03-02 23:30:00,50.9,50.9,30.00,SSE,158,9.6,14.8,100,0.00,,,0.00,0.00,VWS V14.01,2013-03-03 07:30:00,
2013-03-02 23:32:00,53.4,50.9,30.03,SSW,202,8.5,13.2,91,0.00,,,0.00,0.00,VWS V14.01,2013-03-03 07:32:00,
2013-03-02 23:37:00,52.9,50.9,30.03,SSW,202,9.6,13.2,93,0.00,,,0.00,0.00,VWS V14.01,2013-03-03 07:37:00,
2013-03-02 23:42:00,52.9,50.9,30.03,SW,225,6.0,13.2,93,0.00,,,0.00,0.00,VWS V14.01,2013-03-03 07:42:00,
2013-03-02 23:45:00,50.9,50.9,30.00,South,180,10.1,15.4,100,0.00,,,0.00,0.00,VWS V14.01,2013-03-03 07:45:00,
2013-03-02 23:47:00,52.3,51.0,30.03,SW,225,8.7,10.3,95,0.00,,,0.00,0.00,VWS V14.01,2013-03-03 07:47:00,
2013-03-02 23:52:00,51.4,50.9,30.03,SSW,202,10.5,13.6,98,0.00,,,0.00,0.00,VWS V14.01,2013-03-03 07:52:00,
2013-03-02 23:57:00,51.3,51.3,30.00,SSW,202,8.1,14.1,100,0.00,,,0.00,0.00,VWS V14.01,2013-03-03 07:57:00,